createdAt,value
2023-04-28T00:00:03.036Z,1.20
2023-04-28T00:05:07.823Z,1.40
2023-04-28T00:10:10.592Z,1.30
2023-04-28T00:15:13.579Z,1.40
2023-04-28T00:20:16.273Z,1.30
2023-04-28T00:25:18.770Z,1.50
2023-04-28T00:30:21.534Z,1.20
2023-04-28T00:35:24.158Z,1.30
2023-04-28T00:40:37.072Z,1.10
2023-04-28T00:45:39.627Z,1.00
2023-04-28T00:50:44.556Z,1.20
2023-04-28T00:55:48.176Z,1.00
2023-04-28T01:00:50.765Z,0.90
2023-04-28T01:05:53.688Z,1.20
2023-04-28T01:10:56.294Z,1.00
2023-04-28T01:16:18.822Z,1.20
2023-04-28T01:21:32.523Z,1.30
2023-04-28T01:26:39.356Z,1.20
2023-04-28T01:31:41.939Z,1.00
2023-04-28T01:36:44.420Z,1.20
2023-04-28T01:41:47.059Z,1.00
2023-04-28T01:46:49.560Z,1.00
2023-04-28T01:51:52.196Z,0.70
2023-04-28T01:56:54.656Z,1.00
2023-04-28T02:01:57.959Z,1.00
2023-04-28T02:07:00.558Z,1.00
2023-04-28T02:12:03.773Z,1.00
2023-04-28T02:17:06.560Z,0.90
2023-04-28T02:22:09.239Z,0.80
2023-04-28T02:27:11.618Z,0.80
2023-04-28T02:32:14.097Z,0.80
2023-04-28T02:37:16.583Z,0.60
2023-04-28T02:42:19.323Z,0.40
2023-04-28T02:47:21.919Z,0.70
2023-04-28T02:52:24.678Z,0.70
2023-04-28T02:57:27.168Z,0.80
2023-04-28T03:02:29.877Z,0.50
2023-04-28T03:07:32.393Z,0.50
2023-04-28T03:12:35.049Z,0.70
2023-04-28T03:17:39.240Z,0.50
2023-04-28T03:22:42.342Z,0.60
2023-04-28T03:27:44.869Z,0.60
2023-04-28T03:32:47.412Z,0.60
2023-04-28T03:37:50.942Z,0.50
2023-04-28T03:42:53.749Z,0.50
2023-04-28T03:48:04.384Z,0.50
2023-04-28T03:53:07.034Z,0.60
2023-04-28T03:58:10.065Z,0.70
2023-04-28T04:03:12.745Z,0.80
2023-04-28T04:08:15.714Z,0.70
2023-04-28T04:13:18.251Z,0.70
2023-04-28T04:18:21.349Z,0.90
2023-04-28T04:23:56.017Z,0.90
2023-04-28T04:28:58.991Z,1.00
2023-04-28T04:34:01.483Z,1.20
2023-04-28T04:39:04.426Z,1.50
2023-04-28T04:44:07.916Z,1.70
2023-04-28T04:49:17.990Z,1.70
2023-04-28T04:54:20.698Z,2.40
2023-04-28T04:59:23.451Z,2.40
2023-04-28T05:04:39.464Z,2.60
2023-04-28T05:09:43.590Z,2.80
2023-04-28T05:14:47.149Z,3.00
2023-04-28T05:19:50.947Z,3.30
2023-04-28T05:24:54.179Z,3.30
2023-04-28T05:29:56.777Z,3.80
2023-04-28T05:34:59.186Z,4.20
2023-04-28T05:40:01.634Z,4.60
2023-04-28T05:45:06.946Z,5.10
2023-04-28T06:07:06.168Z,7.80
2023-04-28T06:12:10.461Z,8.50
2023-04-28T06:17:13.018Z,8.90
2023-04-28T06:22:15.438Z,9.30
2023-04-28T06:27:18.572Z,8.70
2023-04-28T06:32:21.509Z,7.60
2023-04-28T06:37:24.126Z,7.40
2023-04-28T06:42:27.084Z,7.40
2023-04-28T06:47:40.989Z,7.50
2023-04-28T06:52:44.865Z,7.70
2023-04-28T06:57:47.384Z,7.90
2023-04-28T07:02:50.117Z,8.20
2023-04-28T07:07:52.706Z,8.40
2023-04-28T07:12:55.285Z,8.70
2023-04-28T07:17:57.860Z,8.90
2023-04-28T07:23:00.603Z,9.70
2023-04-28T07:28:05.870Z,10.30
2023-04-28T07:33:08.450Z,11.00
2023-04-28T07:38:10.974Z,11.40
2023-04-28T07:43:13.721Z,11.40
2023-04-28T07:48:16.766Z,11.70
2023-04-28T07:58:22.407Z,12.40
2023-04-28T08:03:25.071Z,12.70
2023-04-28T08:08:27.723Z,13.00
2023-04-28T08:13:30.829Z,13.20
2023-04-28T08:18:33.492Z,13.40
2023-04-28T08:23:35.930Z,13.50
2023-04-28T08:28:39.329Z,13.60
2023-04-28T08:33:44.674Z,13.60
2023-04-28T08:38:47.667Z,13.70
2023-04-28T08:43:50.231Z,13.90
2023-04-28T08:49:00.356Z,14.00
2023-04-28T09:04:18.329Z,14.70
2023-04-28T09:09:25.589Z,14.80
2023-04-28T09:14:29.706Z,14.70
2023-04-28T09:19:37.239Z,15.00
2023-04-28T09:24:42.863Z,15.10
2023-04-28T09:29:54.907Z,14.80
2023-04-28T09:34:57.653Z,14.90
2023-04-28T09:40:12.373Z,14.80
2023-04-28T09:45:16.273Z,14.90
2023-04-28T09:50:18.917Z,14.80
2023-04-28T09:55:21.415Z,15.00
2023-04-28T10:00:24.392Z,15.10
2023-04-28T10:05:27.335Z,15.10
2023-04-28T10:10:30.142Z,15.30
2023-04-28T10:15:33.615Z,15.20
2023-04-28T10:20:36.897Z,15.40
2023-04-28T10:25:40.512Z,15.70
2023-04-28T10:30:43.043Z,15.80
2023-04-28T10:35:47.539Z,15.60
2023-04-28T10:40:52.329Z,15.70
2023-04-28T10:46:02.322Z,15.60
2023-04-28T10:51:07.978Z,15.80
2023-04-28T10:56:16.836Z,15.90
2023-04-28T11:01:22.296Z,15.80
2023-04-28T11:06:40.349Z,15.80
2023-04-28T11:11:51.652Z,15.90
2023-04-28T11:17:02.894Z,15.80
2023-04-28T11:22:13.018Z,15.80
2023-04-28T11:27:24.597Z,15.90
2023-04-28T11:32:35.239Z,16.10
2023-04-28T11:37:37.849Z,16.10
2023-04-28T11:42:50.116Z,16.10
2023-04-28T11:47:52.581Z,16.30
2023-04-28T11:52:55.105Z,16.30
2023-04-28T11:58:24.990Z,16.20
2023-04-28T12:03:27.748Z,16.20
2023-04-28T12:08:30.518Z,16.30
2023-04-28T12:13:33.198Z,16.30
2023-04-28T12:18:37.053Z,16.30
2023-04-28T12:23:39.827Z,16.40
2023-04-28T12:28:42.425Z,16.50
2023-04-28T12:33:45.157Z,16.50
2023-04-28T12:38:49.569Z,16.50
2023-04-28T12:43:52.155Z,16.40
2023-04-28T12:48:54.687Z,16.30
2023-04-28T12:53:57.088Z,16.40
2023-04-28T12:59:02.485Z,16.60
2023-04-28T13:04:05.653Z,16.90
2023-04-28T13:09:08.381Z,16.90
2023-04-28T13:14:10.961Z,16.80
2023-04-28T13:19:14.731Z,16.70
2023-04-28T13:24:17.518Z,16.70
2023-04-28T13:34:23.201Z,16.90
2023-04-28T13:39:25.656Z,17.10
2023-04-28T13:44:28.236Z,17.10
2023-04-28T13:49:30.867Z,17.10
2023-04-28T13:54:33.265Z,17.30
2023-04-28T13:59:36.058Z,17.50
2023-04-28T14:04:38.825Z,17.60
2023-04-28T14:09:41.703Z,17.70
2023-04-28T14:14:47.046Z,17.70
2023-04-28T14:19:49.801Z,17.70
2023-04-28T14:24:52.146Z,17.80
2023-04-28T14:29:54.622Z,17.90
2023-04-28T14:34:57.593Z,17.80
2023-04-28T14:40:01.148Z,17.60
2023-04-28T14:45:05.168Z,17.50
2023-04-28T14:50:08.636Z,17.50
2023-04-28T14:55:11.153Z,17.50
2023-04-28T15:00:14.335Z,17.50
2023-04-28T15:05:16.936Z,17.50
2023-04-28T15:10:19.405Z,17.50
2023-04-28T15:15:21.856Z,17.50
2023-04-28T15:20:24.462Z,17.40
2023-04-28T15:25:27.363Z,17.40
2023-04-28T15:30:29.858Z,17.30
2023-04-28T15:35:32.857Z,17.20
2023-04-28T15:40:35.528Z,17.40
2023-04-28T15:45:39.099Z,17.50
2023-04-28T15:50:41.787Z,17.40
2023-04-28T15:55:44.704Z,17.40
2023-04-28T16:00:47.228Z,17.40
2023-04-28T16:05:49.810Z,17.50
2023-04-28T16:10:53.199Z,17.40
2023-04-28T16:15:55.896Z,17.50
2023-04-28T16:20:58.440Z,17.50
2023-04-28T16:26:01.091Z,17.30
2023-04-28T16:31:03.666Z,17.20
2023-04-28T16:36:06.690Z,17.00
2023-04-28T16:41:09.378Z,16.90
2023-04-28T16:46:12.122Z,16.80
2023-04-28T16:51:14.619Z,16.80
2023-04-28T16:56:17.256Z,16.60
2023-04-28T17:01:19.989Z,16.30
2023-04-28T17:06:22.502Z,16.00
2023-04-28T17:11:25.006Z,15.70
2023-04-28T17:16:32.434Z,15.40
2023-04-28T17:21:35.310Z,15.00
2023-04-28T17:26:38.098Z,14.60
2023-04-28T17:31:40.701Z,14.30
2023-04-28T17:36:43.234Z,14.10
2023-04-28T17:41:46.924Z,13.90
2023-04-28T17:46:49.527Z,13.70
2023-04-28T17:51:52.043Z,13.50
2023-04-28T17:56:55.878Z,13.20
2023-04-28T18:02:00.016Z,13.20
2023-04-28T18:07:02.734Z,13.10
2023-04-28T18:12:05.653Z,13.00
2023-04-28T18:17:08.603Z,12.90
2023-04-28T18:22:11.001Z,12.80
2023-04-28T18:27:13.433Z,12.80
2023-04-28T18:32:16.456Z,12.80
2023-04-28T18:37:18.900Z,12.70
2023-04-28T18:42:21.661Z,12.70
2023-04-28T18:47:24.610Z,12.70
2023-04-28T18:52:27.343Z,12.80
2023-04-28T18:57:30.025Z,12.90
2023-04-28T19:02:33.267Z,12.90
2023-04-28T19:07:35.956Z,13.00
2023-04-28T19:12:38.403Z,12.90
2023-04-28T19:17:40.883Z,12.80
2023-04-28T19:22:44.333Z,12.70
2023-04-28T19:27:46.923Z,12.80
2023-04-28T19:32:49.499Z,12.60
2023-04-28T19:37:52.441Z,12.30
2023-04-28T19:42:55.574Z,12.40
2023-04-28T19:47:58.883Z,12.20
2023-04-28T19:53:01.432Z,11.90
2023-04-28T19:58:05.964Z,11.80
2023-04-28T20:03:08.924Z,11.90
2023-04-28T20:08:12.714Z,12.10
2023-04-28T20:13:15.404Z,12.10
2023-04-28T20:18:18.174Z,12.10
2023-04-28T20:23:20.778Z,12.20
2023-04-28T20:28:23.300Z,12.30
2023-04-28T20:33:25.813Z,12.30
2023-04-28T20:38:29.399Z,12.20
2023-04-28T20:43:32.514Z,12.10
2023-04-28T20:48:35.010Z,12.10
2023-04-28T20:53:39.607Z,12.20
2023-04-28T20:58:42.604Z,12.10
2023-04-28T21:03:45.429Z,12.10
2023-04-28T21:08:48.059Z,12.00
2023-04-28T21:13:50.808Z,12.00
2023-04-28T21:18:54.584Z,12.20
2023-04-28T21:23:57.046Z,12.20
2023-04-28T21:28:59.955Z,12.10
2023-04-28T21:34:02.433Z,12.10
2023-04-28T21:39:05.451Z,12.10
2023-04-28T21:44:07.943Z,12.10
2023-04-28T21:49:10.653Z,12.10
2023-04-28T21:54:14.453Z,12.10
2023-04-28T21:59:18.041Z,11.90
2023-04-28T22:04:21.027Z,11.70
2023-04-28T22:09:23.646Z,11.50
2023-04-28T22:19:38.024Z,11.50
2023-04-28T22:24:40.493Z,11.40
2023-04-28T22:29:42.934Z,11.40
2023-04-28T22:34:45.355Z,11.40
2023-04-28T22:39:48.116Z,11.30
2023-04-28T22:44:50.772Z,11.40
2023-04-28T22:49:53.210Z,11.60
2023-04-28T22:54:55.738Z,11.50
2023-04-28T22:59:58.245Z,11.40
2023-04-28T23:05:00.996Z,11.10
2023-04-28T23:10:05.273Z,11.30
2023-04-28T23:15:09.182Z,11.60
2023-04-28T23:20:12.057Z,11.50
2023-04-28T23:25:14.633Z,11.30
2023-04-28T23:30:17.194Z,10.90
2023-04-28T23:35:19.625Z,10.60
2023-04-28T23:40:22.003Z,10.60
2023-04-28T23:45:24.502Z,10.80
2023-04-28T23:50:27.926Z,10.60
